This is the latest recevied weather packets stored in our database for station/object CE7LGA-10. If no packets are shown the sender has not sent any weather packets the latest 10 day(s).
| Time | Temp. | Humidity | Pressure | Rain* | Wind** | Luminosity | Snow |
|---|---|---|---|---|---|---|---|
| 1787779403 | 12.78° C | 74% | 988.9 hPa | - | - | - | - |
| 1787778503 | 14.44° C | 70% | 988.8 hPa | - | - | - | - |
| 1787777603 | 14.44° C | 69% | 988.5 hPa | - | - | - | - |
| 1787776703 | 14.44° C | 69% | 988.2 hPa | - | - | - | - |
| 1787775803 | 14.44° C | 70% | 988.1 hPa | - | - | - | - |
| 1787774903 | 14.44° C | 70% | 987.7 hPa | - | - | - | - |
| 1787774003 | 14.44° C | 69% | 987.5 hPa | - | - | - | - |
| 1787773103 | 14.44° C | 70% | 987.5 hPa | - | - | - | - |
| 1787772203 | 14.44° C | 71% | 987.4 hPa | - | - | - | - |
| 1787771302 | 13.89° C | 70% | 987.1 hPa | - | - | - | - |
| 1787770402 | 13.89° C | 70% | 986.7 hPa | - | - | - | - |
| 1787769502 | 12.78° C | 72% | 986.9 hPa | - | - | - | - |
| 1787768602 | 12.78° C | 71% | 987 hPa | - | - | - | - |
| 1787767702 | 13.33° C | 71% | 987.2 hPa | - | - | - | - |
| 1787766802 | 13.33° C | 71% | 987.3 hPa | - | - | - | - |
| 1787765901 | 13.33° C | 71% | 987.1 hPa | - | - | - | - |
| 1787765001 | 13.89° C | 71% | 987 hPa | - | - | - | - |
| 1787764101 | 13.89° C | 69% | 987.2 hPa | - | - | - | - |
| 1787763201 | 13.89° C | 70% | 987.3 hPa | - | - | - | - |
| 1787762304 | 13.89° C | 69% | 987.5 hPa | - | - | - | - |
| 1787761404 | 13.89° C | 69% | 987.4 hPa | - | - | - | - |
| 1787760504 | 13.33° C | 70% | 987.7 hPa | - | - | - | - |
| 1787759604 | 13.33° C | 72% | 987.9 hPa | - | - | - | - |
| 1787758704 | 13.89° C | 71% | 987.6 hPa | - | - | - | - |
| 1787757803 | 13.89° C | 72% | 987.3 hPa | - | - | - | - |
* Rain since midnight (hover to see other rain measurements)
** Current wind speed in m/s (hover to see current wind gust speed)